Time;durP1;ratioP1;P1;durP2;ratioP2;P2;SDS_P1;SDS_P2;PMS_P1;PMS_P2;Temp;Humidity;BMP_temperature;BMP_pressure;BME280_temperature;BME280_humidity;BME280_pressure;Samples;Min_cycle;Max_cycle;Signal;HPM_P1;HPM_P2
2023/03/16 00:02:00;;;;;;;13.80;6.88;;;;;;;10.33;47.82;101759.53;5111026;28;20034;-47
2023/03/16 00:04:25;;;;;;;13.20;7.40;;;;;;;10.32;47.91;101765.59;5106973;28;20031;-43
2023/03/16 00:06:51;;;;;;;15.18;7.63;;;;;;;10.28;48.14;101758.53;5108030;28;20050;-46
2023/03/16 00:09:16;;;;;;;15.93;7.18;;;;;;;10.23;47.99;101760.13;5104108;27;20023;-44
2023/03/16 00:11:42;;;;;;;12.40;7.22;;;;;;;10.47;47.74;101751.28;5109031;27;20036;-43
2023/03/16 00:14:07;;;;;;;12.20;7.22;;;;;;;10.51;47.52;101747.03;5105799;28;20063;-44
2023/03/16 00:16:34;;;;;;;13.90;7.45;;;;;;;10.25;47.79;101755.81;5110555;27;20028;-44
2023/03/16 00:19:02;;;;;;;13.48;7.30;;;;;;;10.43;47.37;101751.16;5109396;28;20028;-46
2023/03/16 00:21:31;;;;;;;15.35;7.38;;;;;;;10.44;47.22;101745.97;5105252;28;20042;-43
2023/03/16 00:23:59;;;;;;;14.07;7.47;;;;;;;10.47;47.35;101743.47;5107070;28;20032;-44
2023/03/16 00:26:25;;;;;;;13.25;7.68;;;;;;;10.37;47.64;101753.59;5105344;28;20047;-44
2023/03/16 00:28:53;;;;;;;14.77;7.07;;;;;;;10.40;47.39;101741.53;5110215;28;20185;-44
2023/03/16 00:31:19;;;;;;;13.25;6.90;;;;;;;10.27;47.89;101743.72;5105701;27;20028;-44
2023/03/16 00:33:44;;;;;;;14.45;7.15;;;;;;;10.13;48.55;101738.09;5107807;28;20040;-43
2023/03/16 00:36:10;;;;;;;12.35;7.22;;;;;;;10.35;48.57;101743.13;5105143;28;20350;-48
2023/03/16 00:38:44;;;;;;;12.80;7.40;;;;;;;10.13;49.03;101733.75;5109337;27;20033;-44
2023/03/16 00:41:13;;;;;;;14.57;7.47;;;;;;;10.40;48.56;101728.47;5106541;28;20038;-43
2023/03/16 00:43:41;;;;;;;14.57;7.45;;;;;;;10.58;48.11;101723.78;5109400;28;20032;-45
2023/03/16 00:46:08;;;;;;;16.00;7.70;;;;;;;10.45;48.96;101720.78;5105675;28;20092;-45
2023/03/16 00:48:34;;;;;;;12.95;7.53;;;;;;;10.36;49.38;101711.00;5109844;28;20066;-42
2023/03/16 00:51:05;;;;;;;13.77;7.72;;;;;;;10.23;49.79;101719.31;5109697;28;20027;-44
2023/03/16 00:53:34;;;;;;;12.43;7.45;;;;;;;10.49;49.11;101715.69;5105738;28;20027;-46
2023/03/16 00:56:04;;;;;;;16.23;7.25;;;;;;;10.36;49.34;101711.00;5108723;28;20044;-42
2023/03/16 00:58:34;;;;;;;14.82;7.70;;;;;;;10.16;50.14;101697.41;5105138;28;20107;-45
2023/03/16 01:01:05;;;;;;;13.52;7.53;;;;;;;10.16;50.21;101693.88;5109106;28;20054;-43
2023/03/16 01:03:31;;;;;;;16.80;7.80;;;;;;;10.35;49.96;101701.41;5102364;28;20024;-42
2023/03/16 01:05:59;;;;;;;18.15;8.13;;;;;;;10.41;49.98;101698.97;5105312;28;20038;-43
2023/03/16 01:08:26;;;;;;;14.77;7.60;;;;;;;10.41;49.92;101700.69;5100888;28;20048;-44
2023/03/16 01:10:53;;;;;;;13.70;7.45;;;;;;;10.48;49.94;101693.09;5104502;28;20032;-43
2023/03/16 01:13:19;;;;;;;14.40;8.05;;;;;;;10.41;49.90;101696.38;5102787;28;20035;-44
2023/03/16 01:15:44;;;;;;;15.20;8.00;;;;;;;10.50;49.89;101693.09;5104933;28;20757;-43
2023/03/16 01:18:12;;;;;;;14.65;8.10;;;;;;;10.54;49.59;101693.25;5102912;28;20035;-44
2023/03/16 01:20:38;;;;;;;14.63;8.25;;;;;;;10.45;49.94;101692.09;5111544;28;20035;-42
2023/03/16 01:23:03;;;;;;;15.73;8.23;;;;;;;10.44;50.40;101679.91;5114900;28;20073;-43
2023/03/16 01:25:29;;;;;;;16.15;8.00;;;;;;;10.41;50.72;101685.94;5111732;27;20431;-42
2023/03/16 01:27:54;;;;;;;15.90;8.50;;;;;;;10.22;51.40;101670.66;5108049;28;20393;-44
2023/03/16 01:30:19;;;;;;;13.10;7.80;;;;;;;10.50;50.65;101673.13;5104790;27;20027;-42
2023/03/16 01:32:45;;;;;;;16.83;8.07;;;;;;;10.51;51.32;101661.88;5107607;27;20024;-43
2023/03/16 01:35:11;;;;;;;13.82;8.02;;;;;;;10.37;51.69;101663.22;5104434;28;20051;-44
2023/03/16 01:37:36;;;;;;;14.27;8.20;;;;;;;10.46;51.93;101671.31;5108301;27;20119;-43
2023/03/16 01:40:05;;;;;;;18.40;8.05;;;;;;;10.43;51.46;101670.34;5104553;28;20032;-46
2023/03/16 01:42:30;;;;;;;14.20;8.10;;;;;;;10.55;51.58;101661.09;5099167;27;20038;-43
2023/03/16 01:45:00;;;;;;;14.40;8.27;;;;;;;10.33;51.87;101656.16;5113416;27;20035;-43
2023/03/16 01:47:26;;;;;;;16.75;8.35;;;;;;;10.10;52.47;101654.63;5111077;27;20028;-44
2023/03/16 01:49:54;;;;;;;13.35;8.20;;;;;;;10.33;52.76;101653.56;5114223;27;20381;-43
2023/03/16 01:52:25;;;;;;;15.48;8.40;;;;;;;10.39;52.42;101645.03;5110574;27;20027;-41
2023/03/16 01:55:01;;;;;;;14.18;8.35;;;;;;;10.56;51.84;101633.31;5112071;27;20060;-42
2023/03/16 01:57:34;;;;;;;14.93;8.73;;;;;;;10.49;52.51;101637.47;5105841;28;20036;-43
2023/03/16 02:00:09;;;;;;;14.15;7.78;;;;;;;10.49;52.43;101637.47;5109546;27;20045;-44
2023/03/16 02:02:36;;;;;;;14.50;8.20;;;;;;;10.50;52.38;101638.34;5104714;27;20054;-43
2023/03/16 02:05:08;;;;;;;14.43;7.82;;;;;;;10.50;52.61;101630.53;5109107;27;20068;-46
2023/03/16 02:07:39;;;;;;;15.43;8.18;;;;;;;10.51;52.43;101643.63;5095857;27;20044;-43
2023/03/16 02:10:06;;;;;;;16.05;8.68;;;;;;;10.39;53.82;101638.09;5091212;27;20078;-47
2023/03/16 02:12:32;;;;;;;14.73;8.13;;;;;;;10.25;54.43;101630.72;5107079;27;20027;-43
2023/03/16 02:14:57;;;;;;;15.45;8.25;;;;;;;10.37;54.71;101625.88;5112163;27;20096;-44
2023/03/16 02:17:26;;;;;;;14.98;8.32;;;;;;;10.28;54.86;101628.22;5108630;27;20035;-44
2023/03/16 02:20:21;;;;;;;14.00;8.45;;;;;;;10.18;56.08;101610.59;5107999;27;20032;-43
2023/03/16 02:22:48;;;;;;;;;;;;;;;9.63;57.04;101616.84;5105606;27;20035;-42
2023/03/16 02:25:17;;;;;;;17.20;8.27;;;;;;;10.00;56.91;101616.16;5104378;27;20385;-43
2023/03/16 02:27:52;;;;;;;14.43;8.57;;;;;;;9.77;57.74;101600.75;5107290;28;20213;-42
2023/03/16 02:30:19;;;;;;;14.32;8.40;;;;;;;10.09;57.51;101598.16;5102554;27;20042;-46
2023/03/16 02:32:47;;;;;;;13.73;8.32;;;;;;;10.06;57.78;101603.31;5107121;27;20028;-43
2023/03/16 02:35:13;;;;;;;15.77;8.50;;;;;;;10.07;57.71;101603.31;5102855;28;20063;-43
2023/03/16 02:37:40;;;;;;;18.17;8.57;;;;;;;10.13;57.94;101598.28;5108558;27;20099;-44
2023/03/16 02:40:33;;;;;;;14.45;8.40;;;;;;;10.09;58.09;101598.16;5105230;27;20031;-45
2023/03/16 02:43:07;;;;;;;16.95;8.38;;;;;;;10.14;58.29;101599.16;5109444;27;20038;-43
2023/03/16 02:45:41;;;;;;;16.80;8.82;;;;;;;10.07;58.26;101605.03;5112905;27;20039;-44
2023/03/16 02:48:13;;;;;;;15.25;8.85;;;;;;;10.11;58.33;101591.28;5125251;27;20020;-45
2023/03/16 02:50:47;;;;;;;15.43;8.55;;;;;;;10.12;58.90;101598.25;5113380;27;20093;-44
2023/03/16 02:53:13;;;;;;;18.25;8.88;;;;;;;10.20;58.61;101595.84;5105037;27;20489;-44
2023/03/16 02:55:39;;;;;;;13.63;8.10;;;;;;;10.02;59.06;101593.63;5111093;27;20028;-44
2023/03/16 02:58:04;;;;;;;17.60;8.30;;;;;;;10.19;58.90;101587.16;5106741;27;20119;-44
2023/03/16 03:00:29;;;;;;;14.40;8.65;;;;;;;10.11;59.55;101583.47;5105465;28;20357;-44
2023/03/16 03:02:55;;;;;;;16.52;8.43;;;;;;;10.13;59.28;101592.19;5109736;28;20075;-45
2023/03/16 03:05:20;;;;;;;18.08;8.65;;;;;;;10.14;59.84;101599.16;5110316;28;20027;-44
2023/03/16 03:07:46;;;;;;;13.73;8.38;;;;;;;10.29;59.20;101596.13;5114587;27;20040;-45
2023/03/16 03:10:11;;;;;;;14.68;8.70;;;;;;;9.83;61.20;101586.13;5106396;27;20065;-44
2023/03/16 03:12:37;;;;;;;13.60;8.23;;;;;;;10.12;60.11;101585.22;5105532;28;20238;-42
2023/03/16 03:15:02;;;;;;;16.23;8.45;;;;;;;10.26;59.97;101581.28;5102319;28;20032;-44
2023/03/16 03:17:31;;;;;;;13.95;7.95;;;;;;;10.31;59.91;101576.16;5105667;27;20019;-43
2023/03/16 03:20:12;;;;;;;15.13;8.43;;;;;;;10.06;60.70;101567.69;5105919;28;20039;-43
2023/03/16 03:22:38;;;;;;;13.80;7.47;;;;;;;10.24;60.42;101571.66;5101600;27;20039;-46
2023/03/16 03:25:03;;;;;;;14.20;8.15;;;;;;;10.22;60.35;101565.53;5108653;28;20036;-46
2023/03/16 03:27:29;;;;;;;13.90;7.55;;;;;;;10.20;60.91;101559.38;5104761;27;20034;-43
2023/03/16 03:29:54;;;;;;;16.13;8.10;;;;;;;10.20;60.71;101562.88;5108736;27;20440;-45
2023/03/16 03:32:20;;;;;;;12.85;7.78;;;;;;;10.12;60.52;101551.34;5103169;28;20027;-42
2023/03/16 03:34:46;;;;;;;13.15;7.53;;;;;;;10.32;60.52;101555.38;5106855;27;20512;-42
2023/03/16 03:37:11;;;;;;;14.90;7.55;;;;;;;10.13;60.87;101556.59;5101864;27;20027;-43
2023/03/16 03:39:39;;;;;;;12.13;7.68;;;;;;;10.29;60.94;101560.50;5104615;27;20115;-45
2023/03/16 03:42:05;;;;;;;12.00;7.88;;;;;;;10.23;60.63;101552.53;5103512;27;20089;-50
2023/03/16 03:44:33;;;;;;;13.88;8.07;;;;;;;9.94;61.52;101543.06;5107995;27;20028;-42
2023/03/16 03:46:59;;;;;;;14.50;7.90;;;;;;;10.03;60.85;101546.78;5105165;27;20043;-44
2023/03/16 03:49:24;;;;;;;14.48;7.88;;;;;;;10.32;60.57;101542.34;5103283;28;20627;-43
2023/03/16 03:51:50;;;;;;;15.23;7.78;;;;;;;10.27;60.10;101543.06;5105790;28;20031;-44
2023/03/16 03:54:15;;;;;;;14.73;7.30;;;;;;;10.39;60.40;101545.97;5101911;27;20031;-45
2023/03/16 03:56:41;;;;;;;14.02;7.90;;;;;;;10.33;60.17;101551.91;5105053;28;20161;-43
2023/03/16 03:59:06;;;;;;;13.73;7.60;;;;;;;10.43;60.06;101540.88;5100737;27;20485;-44
2023/03/16 04:01:32;;;;;;;14.60;7.65;;;;;;;10.12;60.59;101540.94;5104641;28;20169;-43
2023/03/16 04:03:57;;;;;;;15.15;7.80;;;;;;;10.03;60.57;101546.78;5104336;27;20039;-43
2023/03/16 04:06:22;;;;;;;13.90;7.78;;;;;;;10.09;60.81;101538.22;5101106;28;20039;-44
2023/03/16 04:08:48;;;;;;;14.05;7.50;;;;;;;10.26;60.48;101536.09;5104627;28;20035;-43
2023/03/16 04:11:13;;;;;;;14.50;7.63;;;;;;;10.44;59.58;101542.63;5101254;27;20033;-43
2023/03/16 04:13:39;;;;;;;13.93;7.65;;;;;;;10.21;60.16;101538.56;5105401;28;20036;-44
2023/03/16 04:16:04;;;;;;;11.98;6.85;;;;;;;10.33;59.76;101538.88;5102100;28;20055;-49
2023/03/16 04:18:37;;;;;;;13.73;7.40;;;;;;;10.29;60.07;101531.84;5105703;27;20034;-45
2023/03/16 04:21:06;;;;;;;12.65;6.78;;;;;;;10.09;60.61;101533.03;5093426;27;20482;-53
2023/03/16 04:23:32;;;;;;;12.45;6.88;;;;;;;10.20;60.49;101528.09;5085429;28;20043;-43
2023/03/16 04:25:58;;;;;;;12.00;6.43;;;;;;;10.09;61.18;101522.59;5085589;28;20034;-44
2023/03/16 04:28:25;;;;;;;13.30;6.65;;;;;;;10.16;60.94;101529.75;5080899;28;21606;-43
2023/03/16 04:30:53;;;;;;;11.30;6.68;;;;;;;10.33;60.43;101519.75;5091626;28;20092;-43
2023/03/16 04:33:19;;;;;;;10.93;6.30;;;;;;;10.23;60.80;101512.56;5101960;27;20038;-44
2023/03/16 04:35:44;;;;;;;13.57;6.50;;;;;;;10.21;61.16;101517.72;5106161;28;20036;-42
2023/03/16 04:38:11;;;;;;;13.05;6.25;;;;;;;10.24;61.60;101512.63;5104261;27;20118;-45
2023/03/16 04:40:37;;;;;;;10.13;5.72;;;;;;;10.35;61.43;101511.16;5107811;28;20108;-43
2023/03/16 04:43:02;;;;;;;10.07;6.15;;;;;;;9.91;62.02;101504.78;5105090;28;20110;-45
2023/03/16 04:45:27;;;;;;;11.98;6.13;;;;;;;10.02;62.29;101507.66;5108422;28;20040;-44
2023/03/16 04:47:53;;;;;;;12.25;6.05;;;;;;;10.18;61.82;101507.25;5111277;28;20031;-44
2023/03/16 04:50:18;;;;;;;9.52;5.93;;;;;;;9.89;63.00;101503.84;5109912;28;20066;-44
2023/03/16 04:52:43;;;;;;;13.07;5.88;;;;;;;10.11;62.81;101505.28;5108265;27;20031;-42
2023/03/16 04:55:09;;;;;;;11.10;5.78;;;;;;;10.02;62.83;101498.13;5100830;28;20233;-44
2023/03/16 04:57:34;;;;;;;11.38;5.55;;;;;;;10.01;63.41;101488.53;5103321;28;20031;-49
2023/03/16 05:00:00;;;;;;;12.88;5.25;;;;;;;10.07;63.17;101487.81;5105325;28;20024;-42
2023/03/16 05:02:26;;;;;;;8.88;5.10;;;;;;;9.64;64.51;101484.09;5100919;28;20081;-42
2023/03/16 05:04:51;;;;;;;9.38;4.88;;;;;;;9.84;64.12;101482.03;5104417;28;20137;-42
2023/03/16 05:07:17;;;;;;;9.68;4.60;;;;;;;9.83;64.50;101481.97;5099682;28;20032;-44
2023/03/16 05:09:42;;;;;;;9.10;5.18;;;;;;;10.00;64.43;101484.16;5104142;28;20031;-43
2023/03/16 05:12:08;;;;;;;8.68;4.50;;;;;;;9.87;64.76;101476.91;5101945;28;20035;-45
2023/03/16 05:14:34;;;;;;;10.10;4.32;;;;;;;9.67;65.41;101471.16;5104396;28;20035;-44
2023/03/16 05:17:02;;;;;;;7.97;4.03;;;;;;;9.74;65.32;101474.81;5104356;28;20031;-44
2023/03/16 05:19:29;;;;;;;9.50;4.20;;;;;;;9.56;66.43;101469.13;5101091;28;20038;-44
2023/03/16 05:21:55;;;;;;;8.30;4.10;;;;;;;9.23;67.15;101474.28;5104413;28;20027;-44
2023/03/16 05:24:22;;;;;;;7.68;4.53;;;;;;;9.61;66.69;101465.81;5100768;28;20133;-45
2023/03/16 05:26:48;;;;;;;7.07;4.07;;;;;;;9.66;66.14;101465.91;5108991;28;20056;-44
2023/03/16 05:29:13;;;;;;;9.02;4.32;;;;;;;9.50;67.12;101464.63;5101739;28;20078;-42
2023/03/16 05:31:38;;;;;;;9.35;4.50;;;;;;;9.89;65.75;101472.59;5104641;28;20034;-43
2023/03/16 05:34:04;;;;;;;6.90;4.15;;;;;;;9.58;66.53;101463.09;5102196;28;20060;-44
2023/03/16 05:36:29;;;;;;;7.72;4.00;;;;;;;9.39;67.19;101463.47;5106372;28;20024;-44
2023/03/16 05:38:54;;;;;;;8.40;4.10;;;;;;;9.53;67.23;101467.31;5107042;28;20036;-45
2023/03/16 05:41:20;;;;;;;7.50;3.65;;;;;;;9.67;66.57;101457.28;5101543;28;20056;-43
2023/03/16 05:43:46;;;;;;;7.22;3.83;;;;;;;9.68;66.20;101454.72;5103968;28;20073;-43
2023/03/16 05:46:12;;;;;;;8.38;4.20;;;;;;;9.74;66.54;101473.09;5099347;28;20054;-43
2023/03/16 05:48:38;;;;;;;7.50;3.67;;;;;;;9.35;67.25;101457.28;5104030;28;20039;-44
2023/03/16 05:51:04;;;;;;;6.88;3.60;;;;;;;9.60;67.26;101464.03;5102022;28;20062;-42
2023/03/16 05:53:31;;;;;;;6.55;3.55;;;;;;;9.69;66.51;101461.69;5111316;28;20027;-42
2023/03/16 05:55:56;;;;;;;6.97;3.40;;;;;;;9.70;66.44;101460.81;5112086;28;20097;-44
2023/03/16 05:58:22;;;;;;;7.07;3.30;;;;;;;9.32;67.67;101457.22;5106220;28;20032;-42
2023/03/16 06:00:49;;;;;;;7.05;3.50;;;;;;;9.69;66.65;101464.28;5110108;28;20494;-42
2023/03/16 06:03:14;;;;;;;8.60;3.30;;;;;;;9.83;66.31;101461.13;5105947;28;20509;-42
2023/03/16 06:05:40;;;;;;;7.35;3.50;;;;;;;9.88;65.83;101463.00;5108076;28;20027;-43
2023/03/16 06:08:05;;;;;;;8.43;3.58;;;;;;;9.81;66.63;101465.44;5099563;28;20087;-44
2023/03/16 06:10:31;;;;;;;5.63;3.20;;;;;;;9.85;66.33;101460.34;5106176;28;20477;-43
2023/03/16 06:12:56;;;;;;;7.45;3.50;;;;;;;9.58;67.37;101454.41;5106313;27;20097;-42
2023/03/16 06:15:23;;;;;;;7.80;3.35;;;;;;;9.54;67.03;101448.25;5103367;27;20036;-44
2023/03/16 06:17:49;;;;;;;7.30;3.60;;;;;;;9.44;67.59;101445.38;5107489;28;20119;-43
2023/03/16 06:20:16;;;;;;;5.47;3.40;;;;;;;9.69;67.11;101446.06;5103585;27;20034;-43
2023/03/16 06:22:42;;;;;;;6.72;3.30;;;;;;;9.83;66.55;101445.50;5107931;27;20044;-42
2023/03/16 06:25:09;;;;;;;8.00;3.63;;;;;;;9.73;66.72;101447.00;5104956;28;20035;-44
2023/03/16 06:27:35;;;;;;;7.32;4.07;;;;;;;9.92;66.08;101446.63;5112409;27;20050;-45
2023/03/16 06:30:01;;;;;;;9.40;3.63;;;;;;;9.56;67.19;101449.19;5111444;28;20028;-42
2023/03/16 06:32:26;;;;;;;7.63;3.83;;;;;;;9.75;66.46;101445.34;5105674;27;20558;-47
2023/03/16 06:34:52;;;;;;;7.10;3.70;;;;;;;9.67;66.38;101437.31;5106057;27;20055;-45
2023/03/16 06:37:17;;;;;;;6.18;3.58;;;;;;;9.67;66.98;101429.50;5102684;27;20027;-43
2023/03/16 06:39:43;;;;;;;8.60;3.70;;;;;;;9.70;66.48;101424.38;5106551;28;20470;-45
2023/03/16 06:42:09;;;;;;;6.32;3.78;;;;;;;9.75;66.60;101425.41;5102542;27;20028;-46
2023/03/16 06:44:35;;;;;;;9.05;4.00;;;;;;;9.74;66.63;101418.41;5105801;27;20043;-43
2023/03/16 06:47:00;;;;;;;8.40;3.70;;;;;;;9.63;66.74;101419.88;5107447;27;20115;-43
2023/03/16 06:49:26;;;;;;;7.75;4.10;;;;;;;9.83;65.72;101420.34;5102654;27;20023;-46
2023/03/16 06:51:51;;;;;;;7.85;4.00;;;;;;;9.83;66.28;101419.47;5105702;28;20134;-44
2023/03/16 06:54:16;;;;;;;10.10;3.85;;;;;;;9.96;65.67;101414.59;5101759;27;20091;-43
2023/03/16 06:56:42;;;;;;;9.20;4.18;;;;;;;10.13;65.51;101417.59;5105407;27;20036;-43
2023/03/16 06:59:07;;;;;;;8.15;3.80;;;;;;;9.84;65.78;101416.91;5101635;27;20031;-43
2023/03/16 07:01:32;;;;;;;6.57;3.55;;;;;;;9.87;66.02;101423.94;5106210;28;20024;-46
2023/03/16 07:03:58;;;;;;;6.97;3.65;;;;;;;10.00;65.70;101405.16;5105453;27;20059;-43
2023/03/16 07:06:23;;;;;;;6.15;3.78;;;;;;;9.89;65.44;101412.69;5103180;28;20036;-46
2023/03/16 07:08:49;;;;;;;9.43;3.70;;;;;;;9.86;65.86;101411.75;5107867;27;20042;-44
2023/03/16 07:11:14;;;;;;;7.95;3.78;;;;;;;9.86;65.66;101412.63;5102521;27;20032;-43
2023/03/16 07:13:40;;;;;;;7.13;3.97;;;;;;;10.02;65.15;101406.94;5106236;28;20467;-43
2023/03/16 07:16:06;;;;;;;8.73;3.60;;;;;;;10.04;65.15;101407.88;5105312;28;20023;-44
2023/03/16 07:18:32;;;;;;;7.35;3.40;;;;;;;10.25;64.34;101399.69;5109326;28;20118;-44
2023/03/16 07:20:57;;;;;;;7.18;3.67;;;;;;;10.28;64.46;101406.72;5106093;27;20485;-44
2023/03/16 07:23:23;;;;;;;8.50;3.67;;;;;;;10.24;64.33;101397.06;5102199;28;20062;-44
2023/03/16 07:25:50;;;;;;;7.25;3.60;;;;;;;10.54;63.66;101397.75;5106001;27;20355;-44
2023/03/16 07:28:17;;;;;;;8.88;3.60;;;;;;;10.70;63.37;101393.75;5104698;27;20107;-43
2023/03/16 07:30:44;;;;;;;9.10;3.53;;;;;;;10.48;62.99;101403.72;5106628;28;20065;-42
2023/03/16 07:33:10;;;;;;;9.73;3.72;;;;;;;10.61;62.78;101410.09;5101393;27;20036;-42
2023/03/16 07:35:36;;;;;;;6.70;3.97;;;;;;;10.67;62.10;101409.34;5105503;28;20040;-42
2023/03/16 07:38:01;;;;;;;7.20;3.35;;;;;;;10.67;61.64;101410.22;5103883;27;20027;-54
2023/03/16 07:40:27;;;;;;;5.97;3.45;;;;;;;10.82;61.12;101400.09;5103387;27;20031;-42
2023/03/16 07:42:52;;;;;;;6.45;3.80;;;;;;;10.61;61.40;101404.88;5104601;28;20093;-42
2023/03/16 07:45:17;;;;;;;7.40;3.75;;;;;;;11.07;60.45;101395.38;5101688;27;20048;-43
2023/03/16 07:47:43;;;;;;;5.95;3.17;;;;;;;10.88;60.14;101399.34;5105801;28;20506;-44
2023/03/16 07:50:10;;;;;;;7.07;3.30;;;;;;;10.75;59.94;101402.53;5101564;27;20468;-47
2023/03/16 07:52:35;;;;;;;8.00;3.45;;;;;;;10.97;59.27;101403.03;5105509;27;20046;-44
2023/03/16 07:55:01;;;;;;;8.63;3.45;;;;;;;10.72;59.48;101407.69;5103311;28;20028;-49
2023/03/16 07:57:26;;;;;;;7.28;3.17;;;;;;;10.81;59.77;101406.16;5102289;27;20039;-44
2023/03/16 07:59:51;;;;;;;8.07;3.58;;;;;;;11.04;58.45;101409.22;5105165;28;20031;-44
2023/03/16 08:02:20;;;;;;;6.18;3.30;;;;;;;11.09;58.42;101402.38;5100841;27;20141;-46
2023/03/16 08:04:46;;;;;;;7.00;3.28;;;;;;;11.27;57.55;101409.69;5105305;28;20137;-44
2023/03/16 08:07:13;;;;;;;7.63;3.28;;;;;;;11.31;57.49;101407.16;5101602;27;20499;-46
2023/03/16 08:09:39;;;;;;;8.20;3.20;;;;;;;11.54;57.25;101398.84;5105800;27;20043;-44
2023/03/16 08:12:05;;;;;;;7.60;2.85;;;;;;;11.49;57.43;101403.13;5108458;27;20104;-47
2023/03/16 08:14:33;;;;;;;6.45;3.17;;;;;;;11.60;57.13;101396.34;5113306;27;20032;-42
2023/03/16 08:17:02;;;;;;;6.75;2.92;;;;;;;11.68;56.50;101402.59;5110340;28;20024;-42
2023/03/16 08:19:28;;;;;;;9.70;3.10;;;;;;;11.70;55.87;101414.84;5101373;28;20031;-44
2023/03/16 08:21:53;;;;;;;8.75;3.10;;;;;;;11.64;55.69;101404.28;5106475;27;20597;-42
2023/03/16 08:24:19;;;;;;;7.60;3.15;;;;;;;11.62;55.28;101405.97;5099242;28;20069;-44
2023/03/16 08:26:45;;;;;;;7.40;3.22;;;;;;;11.55;56.12;101401.50;5106373;28;20055;-44
2023/03/16 08:29:10;;;;;;;6.93;2.90;;;;;;;11.37;55.59;101395.94;5103202;28;20059;-44
2023/03/16 08:31:36;;;;;;;6.78;3.10;;;;;;;11.68;55.42;101394.75;5105969;27;20144;-43
2023/03/16 08:34:01;;;;;;;7.25;3.45;;;;;;;11.66;55.48;101399.94;5104233;28;20111;-44
2023/03/16 08:36:29;;;;;;;5.72;2.80;;;;;;;11.58;55.41;101396.34;5101036;27;20457;-46
2023/03/16 08:38:55;;;;;;;6.38;3.05;;;;;;;11.86;55.55;101394.22;5104997;27;20103;-47
2023/03/16 08:41:21;;;;;;;6.53;2.90;;;;;;;11.86;54.92;101389.88;5100122;28;21516;-44
2023/03/16 08:43:46;;;;;;;7.32;3.08;;;;;;;11.91;54.32;101392.56;5104901;28;20059;-44
2023/03/16 08:46:12;;;;;;;9.00;2.90;;;;;;;11.81;54.87;101385.44;5100456;27;20068;-43
2023/03/16 08:48:40;;;;;;;5.50;2.80;;;;;;;12.34;53.88;101391.47;5104659;28;20027;-46
2023/03/16 08:51:06;;;;;;;6.43;2.90;;;;;;;12.45;53.42;101379.44;5099604;28;20062;-42
2023/03/16 08:53:32;;;;;;;5.55;2.83;;;;;;;12.52;52.32;101382.16;5106297;28;20032;-43
2023/03/16 08:56:05;;;;;;;7.05;3.08;;;;;;;12.65;51.82;101375.34;5104956;28;20038;-47
2023/03/16 08:58:31;;;;;;;6.07;3.03;;;;;;;12.67;52.07;101370.16;5101969;28;20110;-43
2023/03/16 09:00:58;;;;;;;6.13;2.90;;;;;;;12.78;51.89;101371.16;5105109;28;20031;-44
2023/03/16 09:03:24;;;;;;;6.40;2.95;;;;;;;12.94;51.07;101373.97;5106890;28;20035;-44
2023/03/16 09:05:50;;;;;;;6.55;3.00;;;;;;;13.09;50.64;101365.41;5110206;28;20398;-44
2023/03/16 09:08:15;;;;;;;7.68;2.90;;;;;;;13.18;50.67;101367.28;5105652;28;20024;-43
2023/03/16 09:10:41;;;;;;;6.82;3.00;;;;;;;13.49;49.67;101360.59;5109448;28;20123;-45
2023/03/16 09:13:07;;;;;;;6.68;2.85;;;;;;;13.71;48.89;101358.19;5106566;28;20035;-46
2023/03/16 09:15:32;;;;;;;8.18;2.92;;;;;;;13.61;48.46;101352.84;5108883;28;20476;-46
2023/03/16 09:17:59;;;;;;;8.05;3.08;;;;;;;13.56;48.63;101355.44;5112699;27;20036;-45
2023/03/16 09:20:26;;;;;;;8.43;3.35;;;;;;;13.32;49.17;101357.81;5123358;27;20027;-47
2023/03/16 09:22:51;;;;;;;7.85;3.10;;;;;;;13.00;49.21;101357.44;5122916;27;20069;-47
2023/03/16 09:25:17;;;;;;;5.18;2.78;;;;;;;13.40;49.12;101362.28;5119928;27;20517;-40
2023/03/16 09:27:43;;;;;;;5.80;2.80;;;;;;;13.42;48.94;101375.38;5105850;27;20108;-43
2023/03/16 09:30:09;;;;;;;5.72;2.80;;;;;;;13.46;48.63;101374.56;5086014;28;20074;-43
2023/03/16 09:32:36;;;;;;;7.25;3.20;;;;;;;13.79;47.99;101369.59;5081693;28;20044;-43
2023/03/16 09:35:02;;;;;;;6.57;2.70;;;;;;;13.48;48.78;101351.84;5084030;27;20394;-45
2023/03/16 09:37:27;;;;;;;7.55;2.70;;;;;;;13.53;47.29;101363.28;5080022;28;20032;-49
2023/03/16 09:39:52;;;;;;;5.35;2.83;;;;;;;13.80;47.78;101354.75;5081630;28;20035;-43
2023/03/16 09:42:45;;;;;;;6.78;3.00;;;;;;;13.97;47.40;101353.13;5077058;28;20520;-45
2023/03/16 09:45:25;;;;;;;8.30;3.20;;;;;;;14.10;46.96;101346.22;5080352;27;20040;-44
2023/03/16 09:47:57;;;;;;;7.55;2.90;;;;;;;13.90;46.25;101334.75;5085950;28;20040;-43
2023/03/16 09:50:27;;;;;;;5.93;2.88;;;;;;;13.73;46.90;101339.84;5083136;27;20058;-44
2023/03/16 09:52:58;;;;;;;5.80;2.65;;;;;;;14.35;45.97;101339.38;5086540;28;20024;-46
2023/03/16 09:55:29;;;;;;;8.57;2.80;;;;;;;14.02;45.50;101348.81;5084627;28;20051;-45
2023/03/16 09:57:57;;;;;;;6.13;2.80;;;;;;;14.53;45.48;101353.50;5086478;28;20120;-43
2023/03/16 10:00:30;;;;;;;7.63;2.92;;;;;;;14.29;45.42;101347.22;5082107;28;20063;-45
2023/03/16 10:03:14;;;;;;;5.75;2.83;;;;;;;14.21;45.62;101345.44;5085711;28;20510;-45
2023/03/16 10:05:39;;;;;;;7.65;2.90;;;;;;;14.69;44.79;101343.09;5102221;27;20036;-45
2023/03/16 10:08:23;;;;;;;5.78;2.80;;;;;;;14.70;45.20;101335.22;5103420;27;20028;-43
2023/03/16 10:10:54;;;;;;;5.55;2.83;;;;;;;14.70;45.30;101342.25;5105638;27;20040;-44
2023/03/16 10:14:01;;;;;;;7.82;2.67;;;;;;;14.85;44.21;101339.66;5102706;27;20081;-42
2023/03/16 10:16:45;;;;;;;7.70;2.67;;;;;;;15.05;43.82;101335.34;5106695;27;20038;-43
2023/03/16 10:19:32;;;;;;;6.25;2.72;;;;;;;15.06;44.30;101328.34;5104531;27;20031;-43
2023/03/16 10:22:01;;;;;;;5.07;2.90;;;;;;;15.38;43.51;101329.25;5109528;27;20031;-46
2023/03/16 10:24:35;;;;;;;4.85;2.63;;;;;;;14.67;44.09;101340.47;5106836;27;20039;-44
2023/03/16 10:27:03;;;;;;;9.45;2.97;;;;;;;15.22;43.70;101328.38;5106995;27;20036;-44
2023/03/16 10:29:33;;;;;;;7.03;2.40;;;;;;;15.53;42.92;101320.53;5101035;28;20031;-46
2023/03/16 10:32:05;;;;;;;5.43;2.60;;;;;;;15.35;42.94;101316.13;5105238;27;20034;-44
2023/03/16 10:34:31;;;;;;;7.00;2.55;;;;;;;15.03;42.53;101309.06;5087519;28;20031;-43
2023/03/16 10:36:56;;;;;;;6.40;2.50;;;;;;;15.23;42.60;101318.75;5105955;27;20408;-46
2023/03/16 10:39:22;;;;;;;7.05;2.70;;;;;;;15.46;42.31;101311.75;5103921;27;20079;-43
2023/03/16 10:41:55;;;;;;;4.57;2.35;;;;;;;15.34;41.93;101299.50;5105170;27;20035;-41
2023/03/16 10:44:23;;;;;;;6.85;2.70;;;;;;;14.76;43.33;101297.63;5104922;28;20027;-43
2023/03/16 10:46:57;;;;;;;6.15;2.80;;;;;;;15.33;43.21;101302.09;5102021;27;20044;-47
2023/03/16 10:49:25;;;;;;;5.38;2.50;;;;;;;15.61;41.83;101295.16;5101409;27;20559;-44
2023/03/16 10:51:53;;;;;;;6.00;2.70;;;;;;;15.55;41.98;101287.28;5105243;27;20379;-46
2023/03/16 10:54:33;;;;;;;4.90;2.67;;;;;;;15.82;41.38;101284.59;5101113;27;20024;-43
2023/03/16 10:56:59;;;;;;;6.25;2.50;;;;;;;15.91;41.46;101281.97;5105075;28;20489;-45
2023/03/16 10:59:32;;;;;;;6.32;2.70;;;;;;;15.89;41.32;101278.47;5101153;28;20081;-49
2023/03/16 11:01:58;;;;;;;4.30;2.40;;;;;;;15.79;41.36;101268.84;5105049;28;20039;-45
2023/03/16 11:04:24;;;;;;;4.70;2.50;;;;;;;15.84;40.95;101280.22;5100382;28;20035;-49
2023/03/16 11:06:56;;;;;;;4.40;2.35;;;;;;;15.66;40.43;101288.13;5103202;28;20035;-47
2023/03/16 11:09:32;;;;;;;4.70;2.40;;;;;;;15.86;40.59;101277.59;5100902;27;20047;-48
2023/03/16 11:11:59;;;;;;;6.05;2.60;;;;;;;14.99;41.99;101277.56;5104442;27;20028;-46
2023/03/16 11:14:27;;;;;;;10.90;2.55;;;;;;;15.50;41.31;101270.56;5101157;27;20054;-44
2023/03/16 11:17:04;;;;;;;5.32;2.50;;;;;;;16.02;41.07;101267.03;5107131;28;20027;-46
2023/03/16 11:19:37;;;;;;;7.47;2.55;;;;;;;16.01;40.57;101269.66;5102874;27;20043;-45
2023/03/16 11:22:12;;;;;;;6.40;2.65;;;;;;;16.04;40.78;101269.69;5101706;27;20038;-43
2023/03/16 11:24:43;;;;;;;;;;;;;;;15.97;40.62;101262.66;5105148;27;20043;-44
2023/03/16 11:27:22;;;;;;;5.82;2.47;;;;;;;15.77;40.85;101260.06;5102181;27;19915;-45